Strona główna
METAR-TAF:

METAR-TAF

Lotnisko :

Port lotniczy Praia

Praia, Republika Zielonego Przylądka

Szerokość geograficzna: 14-55-27N, Długość geograficzna: 23-29-38W, wysokość: 70 m

Aktualna obserwacja pogody

Raport powstał 18 minut temu, godzina 18:00 UTC
Wiatr 15 kt od północno-północny wschód
Temperatura 27°C
Wilgotność 66%
Ciśnienie 1015 hPa
Widzialność 10 km lub więcej
Przerywane chmury na wysokości 1800 ft

METAR: GVNP 151800Z 03015KT 9999 BKN018 27/20 Q1015 NOSIG

czas: 17:18 (18:18 UTC)

Prognoza

Raport powstał 1 godzina i 18 minut temu, godzina 17:00 UTC
Prognoza ważna od 15 godzina 18 UTC do 16 godzina 24 UTC
Wiatr 10 kt od północ
Widzialność 10 km lub więcej
Rozproszone chmury na wysokości 2000 ft

TAF: GVNP 151700Z 1518/1624 36010KT 9999 SCT020

Obserwacja i prognoza pogody dla ponad 4000 lotnisk (raport METAR i TAF).

Dostępne stacje oznaczono żółtymi i czerwonymi punktami na mapie.

Najedź kursorem aby zobaczyć nazwę stacji.

Kliknij aby zobaczyć obserwacje i prognozy pogody.

Aby zmienić mapę: kliknij na zielony przycisk z czarnym krzyżykiem, aby powiększyć; na zielony przycisk z myślnikiem, aby pomniejszyć; na zielone strzałki, aby przejść do map sąsiednich.


METAR-TAF: